Terminal Aerodrome Forecast
Issued by NWS Knoxville/Tri Cities, TN

Home | Current Version | Previous Version | Text Only | Print | Product List | Glossary On
Versions: 1 2 3 4 5 6 7 8 9 10 11 12 13 14 15 16 17 18 19 20 21 22 23 24 25 26 27 28 29 30 31 32 33 34
000
FTUS44 KMRX 261206 AAA
TAFCHA
TAF AMD
KCHA 261206Z 2612/2712 VRB03KT 4SM BR SCT005 OVC010
      TEMPO 2612/2613 1SM BR OVC005
     FM261300 16005KT 5SM BR SCT006 BKN015
     FM261500 17008KT P6SM VCSH SCT025 BKN120
     FM261800 18010KT P6SM VCTS SCT035 BKN040CB
     FM270100 VRB03KT P6SM VCSH SCT020 BKN080
     FM270500 00000KT 6SM BR BKN025=

USA.gov is the U.S. government's official web portal to all federal, state and local government web resources and services.